sensor_id;sensor_type;location;lat;lon;timestamp;pressure;altitude;pressure_sealevel;temperature;humidity
56789;BME280;42657;51.650;17.780;2022-11-14T00:00:25;101193.00;;;4.09;85.32
56789;BME280;42657;51.650;17.780;2022-11-14T00:03:42;101186.98;;;4.15;85.23
56789;BME280;42657;51.650;17.780;2022-11-14T00:06:43;101189.86;;;4.21;85.32
56789;BME280;42657;51.650;17.780;2022-11-14T00:09:45;101191.17;;;4.26;85.22
56789;BME280;42657;51.650;17.780;2022-11-14T00:12:46;101190.06;;;4.30;85.14
56789;BME280;42657;51.650;17.780;2022-11-14T00:15:49;101189.52;;;4.34;85.03
56789;BME280;42657;51.650;17.780;2022-11-14T00:18:51;101189.25;;;4.38;84.84
56789;BME280;42657;51.650;17.780;2022-11-14T00:21:52;101189.55;;;4.43;84.95
56789;BME280;42657;51.650;17.780;2022-11-14T00:24:54;101193.54;;;4.46;84.83
56789;BME280;42657;51.650;17.780;2022-11-14T00:27:56;101196.34;;;4.47;84.89
56789;BME280;42657;51.650;17.780;2022-11-14T00:30:58;101200.48;;;4.46;84.68
56789;BME280;42657;51.650;17.780;2022-11-14T00:33:59;101203.44;;;4.44;84.61
56789;BME280;42657;51.650;17.780;2022-11-14T00:37:01;101200.17;;;4.46;84.72
56789;BME280;42657;51.650;17.780;2022-11-14T00:40:03;101202.27;;;4.48;84.72
56789;BME280;42657;51.650;17.780;2022-11-14T00:43:04;101205.20;;;4.50;84.71
56789;BME280;42657;51.650;17.780;2022-11-14T00:46:06;101199.25;;;4.51;84.69
56789;BME280;42657;51.650;17.780;2022-11-14T00:49:07;101197.20;;;4.50;84.60
56789;BME280;42657;51.650;17.780;2022-11-14T00:52:09;101199.86;;;4.50;84.62
56789;BME280;42657;51.650;17.780;2022-11-14T00:55:10;101198.87;;;4.49;84.55
56789;BME280;42657;51.650;17.780;2022-11-14T00:58:12;101197.22;;;4.54;84.65
56789;BME280;42657;51.650;17.780;2022-11-14T01:01:13;101195.61;;;4.59;84.70
56789;BME280;42657;51.650;17.780;2022-11-14T01:04:15;101197.83;;;4.59;84.60
56789;BME280;42657;51.650;17.780;2022-11-14T01:07:17;101198.48;;;4.60;84.56
56789;BME280;42657;51.650;17.780;2022-11-14T01:10:18;101198.76;;;4.62;84.43
56789;BME280;42657;51.650;17.780;2022-11-14T01:13:20;101193.95;;;4.63;84.53
56789;BME280;42657;51.650;17.780;2022-11-14T01:16:24;101190.27;;;4.65;84.48
56789;BME280;42657;51.650;17.780;2022-11-14T01:19:25;101189.39;;;4.69;84.59
56789;BME280;42657;51.650;17.780;2022-11-14T01:22:28;101188.08;;;4.69;84.56
56789;BME280;42657;51.650;17.780;2022-11-14T01:25:35;101186.13;;;4.70;84.54
56789;BME280;42657;51.650;17.780;2022-11-14T01:28:38;101175.54;;;4.72;84.52
56789;BME280;42657;51.650;17.780;2022-11-14T01:31:40;101165.84;;;4.73;84.36
56789;BME280;42657;51.650;17.780;2022-11-14T01:34:42;101159.86;;;4.78;84.50
56789;BME280;42657;51.650;17.780;2022-11-14T01:37:43;101155.71;;;4.81;84.42
56789;BME280;42657;51.650;17.780;2022-11-14T01:40:45;101150.88;;;4.82;84.50
56789;BME280;42657;51.650;17.780;2022-11-14T01:43:47;101145.58;;;4.84;84.48
56789;BME280;42657;51.650;17.780;2022-11-14T01:46:51;101137.36;;;4.86;84.23
56789;BME280;42657;51.650;17.780;2022-11-14T01:50:00;101130.63;;;4.88;84.21
56789;BME280;42657;51.650;17.780;2022-11-14T01:53:02;101124.39;;;4.90;84.15
56789;BME280;42657;51.650;17.780;2022-11-14T01:56:05;101120.44;;;4.88;84.25
56789;BME280;42657;51.650;17.780;2022-11-14T01:59:10;101125.13;;;4.87;84.22
56789;BME280;42657;51.650;17.780;2022-11-14T02:02:16;101113.14;;;4.90;84.28
56789;BME280;42657;51.650;17.780;2022-11-14T02:05:18;101115.17;;;4.92;84.11
56789;BME280;42657;51.650;17.780;2022-11-14T02:08:20;101114.84;;;4.94;84.13
56789;BME280;42657;51.650;17.780;2022-11-14T02:11:22;101119.46;;;4.91;84.05
56789;BME280;42657;51.650;17.780;2022-11-14T02:14:25;101120.61;;;4.87;84.09
56789;BME280;42657;51.650;17.780;2022-11-14T02:17:27;101121.17;;;4.86;84.21
56789;BME280;42657;51.650;17.780;2022-11-14T02:20:33;101119.21;;;4.86;84.22
56789;BME280;42657;51.650;17.780;2022-11-14T02:23:35;101123.12;;;4.88;84.16
56789;BME280;42657;51.650;17.780;2022-11-14T02:26:37;101114.41;;;4.90;84.14
56789;BME280;42657;51.650;17.780;2022-11-14T02:29:38;101112.57;;;4.90;84.11
56789;BME280;42657;51.650;17.780;2022-11-14T02:32:40;101109.70;;;4.90;84.00
56789;BME280;42657;51.650;17.780;2022-11-14T02:35:41;101113.67;;;4.90;84.11
56789;BME280;42657;51.650;17.780;2022-11-14T02:38:43;101107.14;;;4.89;84.01
56789;BME280;42657;51.650;17.780;2022-11-14T02:41:44;101110.91;;;4.88;83.94
56789;BME280;42657;51.650;17.780;2022-11-14T02:44:46;101110.99;;;4.88;84.09
56789;BME280;42657;51.650;17.780;2022-11-14T02:47:47;101107.38;;;4.89;84.11
56789;BME280;42657;51.650;17.780;2022-11-14T02:50:49;101105.28;;;4.89;83.95
56789;BME280;42657;51.650;17.780;2022-11-14T02:53:51;101106.08;;;4.92;84.07
56789;BME280;42657;51.650;17.780;2022-11-14T02:56:52;101101.23;;;4.94;84.08
56789;BME280;42657;51.650;17.780;2022-11-14T02:59:53;101095.95;;;4.95;83.96
56789;BME280;42657;51.650;17.780;2022-11-14T03:02:55;101091.44;;;4.95;84.09
56789;BME280;42657;51.650;17.780;2022-11-14T03:06:00;101084.54;;;4.96;83.88
56789;BME280;42657;51.650;17.780;2022-11-14T03:09:02;101079.69;;;4.98;83.96
56789;BME280;42657;51.650;17.780;2022-11-14T03:12:03;101075.51;;;5.01;83.96
56789;BME280;42657;51.650;17.780;2022-11-14T03:15:05;101075.64;;;5.03;84.07
56789;BME280;42657;51.650;17.780;2022-11-14T03:18:07;101072.60;;;5.03;84.10
56789;BME280;42657;51.650;17.780;2022-11-14T03:21:11;101068.20;;;5.03;83.91
56789;BME280;42657;51.650;17.780;2022-11-14T03:24:13;101068.09;;;5.04;83.86
56789;BME280;42657;51.650;17.780;2022-11-14T03:27:14;101064.43;;;5.06;83.86
56789;BME280;42657;51.650;17.780;2022-11-14T03:30:16;101060.90;;;5.08;84.00
56789;BME280;42657;51.650;17.780;2022-11-14T03:33:17;101056.38;;;5.10;84.00
56789;BME280;42657;51.650;17.780;2022-11-14T03:36:18;101057.54;;;5.12;83.97
56789;BME280;42657;51.650;17.780;2022-11-14T03:39:20;101057.88;;;5.14;83.70
56789;BME280;42657;51.650;17.780;2022-11-14T03:42:21;101057.55;;;5.18;83.84
56789;BME280;42657;51.650;17.780;2022-11-14T03:45:23;101061.25;;;5.19;83.75
56789;BME280;42657;51.650;17.780;2022-11-14T03:48:24;101055.38;;;5.18;83.64
56789;BME280;42657;51.650;17.780;2022-11-14T03:51:26;101050.44;;;5.20;83.85
56789;BME280;42657;51.650;17.780;2022-11-14T03:54:27;101050.17;;;5.22;83.76
56789;BME280;42657;51.650;17.780;2022-11-14T03:57:29;101045.44;;;5.24;83.80
56789;BME280;42657;51.650;17.780;2022-11-14T04:00:30;101041.90;;;5.27;83.74
56789;BME280;42657;51.650;17.780;2022-11-14T04:03:31;101041.46;;;5.26;83.61
56789;BME280;42657;51.650;17.780;2022-11-14T04:06:33;101041.27;;;5.28;83.66
56789;BME280;42657;51.650;17.780;2022-11-14T04:09:34;101039.94;;;5.30;83.66
56789;BME280;42657;51.650;17.780;2022-11-14T04:12:36;101038.00;;;5.30;83.47
56789;BME280;42657;51.650;17.780;2022-11-14T04:15:37;101039.48;;;5.29;83.55
56789;BME280;42657;51.650;17.780;2022-11-14T04:18:39;101033.13;;;5.27;83.38
56789;BME280;42657;51.650;17.780;2022-11-14T04:21:40;101034.42;;;5.25;83.47
56789;BME280;42657;51.650;17.780;2022-11-14T04:24:41;101029.58;;;5.28;83.66
56789;BME280;42657;51.650;17.780;2022-11-14T04:27:43;101032.86;;;5.31;83.36
56789;BME280;42657;51.650;17.780;2022-11-14T04:30:44;101031.63;;;5.32;83.45
56789;BME280;42657;51.650;17.780;2022-11-14T04:33:46;101034.27;;;5.29;83.27
56789;BME280;42657;51.650;17.780;2022-11-14T04:36:47;101036.57;;;5.26;83.41
56789;BME280;42657;51.650;17.780;2022-11-14T04:39:49;101027.35;;;5.25;83.53
56789;BME280;42657;51.650;17.780;2022-11-14T04:42:50;101024.61;;;5.26;83.46
56789;BME280;42657;51.650;17.780;2022-11-14T04:45:52;101022.71;;;5.28;83.38
56789;BME280;42657;51.650;17.780;2022-11-14T04:48:53;101023.13;;;5.29;83.40
56789;BME280;42657;51.650;17.780;2022-11-14T04:51:55;101018.98;;;5.28;83.23
56789;BME280;42657;51.650;17.780;2022-11-14T04:54:56;101016.44;;;5.28;83.24
56789;BME280;42657;51.650;17.780;2022-11-14T04:57:58;101021.36;;;5.29;83.22
56789;BME280;42657;51.650;17.780;2022-11-14T05:01:06;101015.86;;;5.29;83.22
56789;BME280;42657;51.650;17.780;2022-11-14T05:04:07;101010.21;;;5.27;83.10
56789;BME280;42657;51.650;17.780;2022-11-14T05:07:09;101009.27;;;5.26;83.28
56789;BME280;42657;51.650;17.780;2022-11-14T05:10:10;101008.08;;;5.24;83.12
56789;BME280;42657;51.650;17.780;2022-11-14T05:13:12;101008.52;;;5.21;83.00
56789;BME280;42657;51.650;17.780;2022-11-14T05:16:14;101013.41;;;5.20;83.11
56789;BME280;42657;51.650;17.780;2022-11-14T05:19:15;101016.25;;;5.21;83.15
56789;BME280;42657;51.650;17.780;2022-11-14T05:22:17;101011.86;;;5.24;83.04
56789;BME280;42657;51.650;17.780;2022-11-14T05:25:18;101015.36;;;5.23;83.09
56789;BME280;42657;51.650;17.780;2022-11-14T05:28:20;101019.28;;;5.20;82.86
56789;BME280;42657;51.650;17.780;2022-11-14T05:31:22;101013.81;;;5.17;82.98
56789;BME280;42657;51.650;17.780;2022-11-14T05:34:23;101007.73;;;5.16;83.00
56789;BME280;42657;51.650;17.780;2022-11-14T05:37:25;101006.01;;;5.13;82.97
56789;BME280;42657;51.650;17.780;2022-11-14T05:40:26;101009.40;;;5.10;83.17
56789;BME280;42657;51.650;17.780;2022-11-14T05:43:28;101011.48;;;5.09;83.10
56789;BME280;42657;51.650;17.780;2022-11-14T05:46:29;101011.73;;;5.09;83.07
56789;BME280;42657;51.650;17.780;2022-11-14T05:49:31;101010.17;;;5.04;82.95
56789;BME280;42657;51.650;17.780;2022-11-14T05:52:32;101008.40;;;5.01;82.95
56789;BME280;42657;51.650;17.780;2022-11-14T05:55:34;101010.90;;;4.96;82.97
56789;BME280;42657;51.650;17.780;2022-11-14T05:58:35;101010.66;;;4.97;82.97
56789;BME280;42657;51.650;17.780;2022-11-14T06:01:37;101011.59;;;4.98;82.94
56789;BME280;42657;51.650;17.780;2022-11-14T06:04:38;101006.09;;;5.00;82.83
56789;BME280;42657;51.650;17.780;2022-11-14T06:07:40;101001.98;;;5.00;82.88
56789;BME280;42657;51.650;17.780;2022-11-14T06:10:41;101001.00;;;5.01;83.09
56789;BME280;42657;51.650;17.780;2022-11-14T06:13:43;101007.36;;;5.02;83.03
56789;BME280;42657;51.650;17.780;2022-11-14T06:16:45;101011.48;;;5.03;83.04
56789;BME280;42657;51.650;17.780;2022-11-14T06:19:46;101010.55;;;5.04;82.82
56789;BME280;42657;51.650;17.780;2022-11-14T06:22:47;101008.30;;;5.06;82.92
56789;BME280;42657;51.650;17.780;2022-11-14T06:25:56;101003.82;;;5.10;82.89
56789;BME280;42657;51.650;17.780;2022-11-14T06:28:58;101008.50;;;5.08;82.60
56789;BME280;42657;51.650;17.780;2022-11-14T06:32:00;101014.96;;;5.07;82.72
56789;BME280;42657;51.650;17.780;2022-11-14T06:35:01;101022.14;;;5.10;82.57
56789;BME280;42657;51.650;17.780;2022-11-14T06:38:03;101020.77;;;5.17;82.63
56789;BME280;42657;51.650;17.780;2022-11-14T06:41:13;101017.69;;;5.24;82.66
56789;BME280;42657;51.650;17.780;2022-11-14T06:44:15;101012.23;;;5.32;82.49
56789;BME280;42657;51.650;17.780;2022-11-14T06:47:16;101011.86;;;5.31;82.33
56789;BME280;42657;51.650;17.780;2022-11-14T06:50:18;101013.59;;;5.32;82.38
56789;BME280;42657;51.650;17.780;2022-11-14T06:53:20;101010.14;;;5.35;82.18
56789;BME280;42657;51.650;17.780;2022-11-14T06:56:21;101004.11;;;5.39;82.10
56789;BME280;42657;51.650;17.780;2022-11-14T06:59:23;100998.43;;;5.42;81.95
56789;BME280;42657;51.650;17.780;2022-11-14T07:02:24;100999.66;;;5.46;81.90
56789;BME280;42657;51.650;17.780;2022-11-14T07:05:25;100995.95;;;5.47;81.93
56789;BME280;42657;51.650;17.780;2022-11-14T07:08:27;101003.13;;;5.52;81.91
56789;BME280;42657;51.650;17.780;2022-11-14T07:11:29;101009.49;;;5.59;81.95
56789;BME280;42657;51.650;17.780;2022-11-14T07:14:30;101013.44;;;5.67;81.83
56789;BME280;42657;51.650;17.780;2022-11-14T07:17:34;101011.95;;;5.78;81.80
56789;BME280;42657;51.650;17.780;2022-11-14T07:20:35;101008.16;;;5.88;81.60
56789;BME280;42657;51.650;17.780;2022-11-14T07:23:37;101005.72;;;5.95;81.57
56789;BME280;42657;51.650;17.780;2022-11-14T07:26:38;101000.21;;;5.99;81.17
56789;BME280;42657;51.650;17.780;2022-11-14T07:29:40;101000.05;;;6.02;81.26
56789;BME280;42657;51.650;17.780;2022-11-14T07:32:41;100990.20;;;6.09;81.03
56789;BME280;42657;51.650;17.780;2022-11-14T07:35:42;100989.23;;;6.17;81.01
56789;BME280;42657;51.650;17.780;2022-11-14T07:38:44;100986.48;;;6.26;80.73
56789;BME280;42657;51.650;17.780;2022-11-14T07:41:45;100986.70;;;6.35;80.76
56789;BME280;42657;51.650;17.780;2022-11-14T07:44:47;100983.14;;;6.41;80.63
56789;BME280;42657;51.650;17.780;2022-11-14T07:47:48;100978.93;;;6.45;80.28
56789;BME280;42657;51.650;17.780;2022-11-14T07:50:50;100980.69;;;6.47;80.02
56789;BME280;42657;51.650;17.780;2022-11-14T07:53:51;100979.38;;;6.45;79.84
56789;BME280;42657;51.650;17.780;2022-11-14T07:56:53;100977.64;;;6.45;79.64
56789;BME280;42657;51.650;17.780;2022-11-14T07:59:54;100977.59;;;6.41;79.86
56789;BME280;42657;51.650;17.780;2022-11-14T08:02:56;100969.79;;;6.33;79.68
56789;BME280;42657;51.650;17.780;2022-11-14T08:06:15;100967.98;;;6.29;79.59
56789;BME280;42657;51.650;17.780;2022-11-14T08:09:17;100968.98;;;6.29;79.55
56789;BME280;42657;51.650;17.780;2022-11-14T08:12:18;100967.42;;;6.28;79.62
56789;BME280;42657;51.650;17.780;2022-11-14T08:15:20;100964.80;;;6.33;79.53
56789;BME280;42657;51.650;17.780;2022-11-14T08:18:23;100969.51;;;6.39;79.78
56789;BME280;42657;51.650;17.780;2022-11-14T08:21:24;100972.79;;;6.57;79.44
56789;BME280;42657;51.650;17.780;2022-11-14T08:24:26;100968.58;;;6.75;79.17
56789;BME280;42657;51.650;17.780;2022-11-14T08:27:30;100957.27;;;6.89;78.96
56789;BME280;42657;51.650;17.780;2022-11-14T08:30:32;100955.73;;;6.99;78.75
56789;BME280;42657;51.650;17.780;2022-11-14T08:33:36;100960.73;;;7.03;78.48
56789;BME280;42657;51.650;17.780;2022-11-14T08:36:38;100958.02;;;7.02;78.19
56789;BME280;42657;51.650;17.780;2022-11-14T08:39:43;100955.19;;;7.00;78.07
56789;BME280;42657;51.650;17.780;2022-11-14T08:42:45;100949.45;;;6.94;78.07
56789;BME280;42657;51.650;17.780;2022-11-14T08:45:47;100947.55;;;6.83;78.10
56789;BME280;42657;51.650;17.780;2022-11-14T08:48:48;100943.56;;;6.73;78.13
56789;BME280;42657;51.650;17.780;2022-11-14T08:51:51;100945.40;;;6.62;78.36
56789;BME280;42657;51.650;17.780;2022-11-14T08:54:54;100940.80;;;6.57;78.31
56789;BME280;42657;51.650;17.780;2022-11-14T08:57:56;100940.69;;;6.49;78.19
56789;BME280;42657;51.650;17.780;2022-11-14T09:01:02;100937.74;;;6.44;78.34
56789;BME280;42657;51.650;17.780;2022-11-14T09:04:05;100934.27;;;6.40;78.35
56789;BME280;42657;51.650;17.780;2022-11-14T09:07:07;100929.47;;;6.33;78.22
56789;BME280;42657;51.650;17.780;2022-11-14T09:10:09;100925.92;;;6.26;78.36
56789;BME280;42657;51.650;17.780;2022-11-14T09:13:11;100926.61;;;6.26;78.38
56789;BME280;42657;51.650;17.780;2022-11-14T09:16:13;100926.27;;;6.27;78.48
56789;BME280;42657;51.650;17.780;2022-11-14T09:19:17;100924.52;;;6.26;78.46
56789;BME280;42657;51.650;17.780;2022-11-14T09:22:18;100918.92;;;6.27;78.56
56789;BME280;42657;51.650;17.780;2022-11-14T09:25:22;100917.36;;;6.28;78.75
56789;BME280;42657;51.650;17.780;2022-11-14T09:28:24;100909.84;;;6.32;78.74
56789;BME280;42657;51.650;17.780;2022-11-14T09:31:26;100910.40;;;6.35;78.70
56789;BME280;42657;51.650;17.780;2022-11-14T09:34:28;100898.50;;;6.41;78.70
56789;BME280;42657;51.650;17.780;2022-11-14T09:37:30;100894.48;;;6.47;78.64
56789;BME280;42657;51.650;17.780;2022-11-14T09:47:37;100890.20;;;6.66;78.65
56789;BME280;42657;51.650;17.780;2022-11-14T09:50:57;100886.14;;;6.76;78.61
56789;BME280;42657;51.650;17.780;2022-11-14T09:54:24;100882.66;;;6.86;78.58
56789;BME280;42657;51.650;17.780;2022-11-14T09:57:27;100880.55;;;6.97;78.57
56789;BME280;42657;51.650;17.780;2022-11-14T10:00:50;100883.00;;;7.05;78.41
56789;BME280;42657;51.650;17.780;2022-11-14T10:04:08;100877.11;;;7.15;78.29
56789;BME280;42657;51.650;17.780;2022-11-14T10:07:36;100876.73;;;7.28;78.05
56789;BME280;42657;51.650;17.780;2022-11-14T10:10:53;100873.77;;;7.38;77.84
56789;BME280;42657;51.650;17.780;2022-11-14T10:17:38;100855.38;;;7.50;77.72
56789;BME280;42657;51.650;17.780;2022-11-14T10:20:52;100854.93;;;7.58;77.48
56789;BME280;42657;51.650;17.780;2022-11-14T10:24:19;100855.34;;;7.68;77.42
56789;BME280;42657;51.650;17.780;2022-11-14T10:27:32;100846.40;;;7.75;77.44
56789;BME280;42657;51.650;17.780;2022-11-14T10:34:21;100839.02;;;7.90;77.36
56789;BME280;42657;51.650;17.780;2022-11-14T10:37:36;100835.00;;;7.99;77.37
56789;BME280;42657;51.650;17.780;2022-11-14T10:40:41;100833.81;;;8.11;77.29
56789;BME280;42657;51.650;17.780;2022-11-14T10:43:49;100831.30;;;8.21;77.21
56789;BME280;42657;51.650;17.780;2022-11-14T10:46:55;100822.81;;;8.30;77.24
56789;BME280;42657;51.650;17.780;2022-11-14T10:50:10;100824.39;;;8.39;77.22
56789;BME280;42657;51.650;17.780;2022-11-14T10:53:26;100817.58;;;8.49;77.00
56789;BME280;42657;51.650;17.780;2022-11-14T10:56:28;100805.98;;;8.59;76.87
56789;BME280;42657;51.650;17.780;2022-11-14T10:59:30;100802.91;;;8.70;76.92
56789;BME280;42657;51.650;17.780;2022-11-14T11:02:55;100797.52;;;8.81;76.91
56789;BME280;42657;51.650;17.780;2022-11-14T11:05:57;100798.85;;;8.93;76.81
56789;BME280;42657;51.650;17.780;2022-11-14T11:08:58;100797.18;;;9.04;76.63
56789;BME280;42657;51.650;17.780;2022-11-14T11:12:08;100798.49;;;9.17;76.63
56789;BME280;42657;51.650;17.780;2022-11-14T11:15:17;100796.52;;;9.28;76.24
56789;BME280;42657;51.650;17.780;2022-11-14T11:18:26;100787.39;;;9.39;76.34
56789;BME280;42657;51.650;17.780;2022-11-14T11:21:46;100786.91;;;9.46;76.01
56789;BME280;42657;51.650;17.780;2022-11-14T11:24:47;100786.68;;;9.56;75.75
56789;BME280;42657;51.650;17.780;2022-11-14T11:31:09;100768.47;;;9.76;75.55
56789;BME280;42657;51.650;17.780;2022-11-14T11:34:11;100770.00;;;9.86;75.26
56789;BME280;42657;51.650;17.780;2022-11-14T11:37:25;100769.02;;;9.95;75.22
56789;BME280;42657;51.650;17.780;2022-11-14T11:40:28;100764.77;;;10.04;75.07
56789;BME280;42657;51.650;17.780;2022-11-14T11:46:54;100755.90;;;10.59;74.96
56789;BME280;42657;51.650;17.780;2022-11-14T11:49:56;100757.55;;;12.12;73.51
56789;BME280;42657;51.650;17.780;2022-11-14T11:53:06;100754.12;;;13.37;71.47
56789;BME280;42657;51.650;17.780;2022-11-14T11:56:24;100754.55;;;14.59;70.01
56789;BME280;42657;51.650;17.780;2022-11-14T11:59:37;100750.98;;;15.64;67.73
56789;BME280;42657;51.650;17.780;2022-11-14T12:02:45;100744.80;;;16.41;65.70
56789;BME280;42657;51.650;17.780;2022-11-14T12:06:18;100740.03;;;15.82;65.12
56789;BME280;42657;51.650;17.780;2022-11-14T12:09:23;100742.03;;;15.08;65.35
56789;BME280;42657;51.650;17.780;2022-11-14T12:12:54;100738.92;;;14.60;65.48
56789;BME280;42657;51.650;17.780;2022-11-14T12:19:59;100742.73;;;13.56;65.78
56789;BME280;42657;51.650;17.780;2022-11-14T12:23:31;100749.16;;;13.38;66.51
56789;BME280;42657;51.650;17.780;2022-11-14T12:36:28;100737.83;;;14.93;61.92
56789;BME280;42657;51.650;17.780;2022-11-14T12:39:30;100735.70;;;14.21;62.52
56789;BME280;42657;51.650;17.780;2022-11-14T12:42:32;100728.18;;;13.60;62.89
56789;BME280;42657;51.650;17.780;2022-11-14T12:48:43;100722.33;;;12.70;64.34
56789;BME280;42657;51.650;17.780;2022-11-14T12:54:46;100711.35;;;12.18;65.51
56789;BME280;42657;51.650;17.780;2022-11-14T12:58:10;100707.41;;;12.33;65.60
56789;BME280;42657;51.650;17.780;2022-11-14T13:04:42;100697.29;;;11.78;65.93
56789;BME280;42657;51.650;17.780;2022-11-14T13:11:44;100689.28;;;11.31;66.63
56789;BME280;42657;51.650;17.780;2022-11-14T13:14:48;100690.77;;;11.12;67.11
56789;BME280;42657;51.650;17.780;2022-11-14T13:18:02;100684.61;;;10.97;67.57
56789;BME280;42657;51.650;17.780;2022-11-14T13:21:16;100680.34;;;10.84;67.89
56789;BME280;42657;51.650;17.780;2022-11-14T13:24:18;100682.84;;;10.73;68.07
56789;BME280;42657;51.650;17.780;2022-11-14T13:34:49;100678.62;;;10.43;68.71
56789;BME280;42657;51.650;17.780;2022-11-14T13:41:43;100677.27;;;10.16;69.27
56789;BME280;42657;51.650;17.780;2022-11-14T13:45:17;100675.82;;;10.04;69.64
56789;BME280;42657;51.650;17.780;2022-11-14T13:48:57;100675.35;;;9.95;69.77
56789;BME280;42657;51.650;17.780;2022-11-14T13:52:05;100672.55;;;9.82;69.95
56789;BME280;42657;51.650;17.780;2022-11-14T13:55:15;100675.64;;;9.71;70.25
56789;BME280;42657;51.650;17.780;2022-11-14T14:09:16;100672.06;;;9.24;71.30
56789;BME280;42657;51.650;17.780;2022-11-14T14:19:19;100666.72;;;8.89;72.07
56789;BME280;42657;51.650;17.780;2022-11-14T14:31:23;100651.44;;;8.40;73.27
56789;BME280;42657;51.650;17.780;2022-11-14T14:34:29;100646.38;;;8.27;73.43
56789;BME280;42657;51.650;17.780;2022-11-14T14:37:30;100643.71;;;8.14;73.65
56789;BME280;42657;51.650;17.780;2022-11-14T14:40:33;100641.75;;;8.04;73.92
56789;BME280;42657;51.650;17.780;2022-11-14T14:43:36;100637.39;;;7.93;73.98
56789;BME280;42657;51.650;17.780;2022-11-14T14:46:37;100632.05;;;7.81;74.33
56789;BME280;42657;51.650;17.780;2022-11-14T14:49:39;100636.28;;;7.68;74.66
56789;BME280;42657;51.650;17.780;2022-11-14T14:52:41;100639.27;;;7.52;74.90
56789;BME280;42657;51.650;17.780;2022-11-14T14:55:54;100635.34;;;7.38;75.11
56789;BME280;42657;51.650;17.780;2022-11-14T14:58:56;100638.73;;;7.24;75.52
56789;BME280;42657;51.650;17.780;2022-11-14T15:01:58;100634.24;;;7.11;75.67
56789;BME280;42657;51.650;17.780;2022-11-14T15:05:00;100634.19;;;6.98;75.69
56789;BME280;42657;51.650;17.780;2022-11-14T15:08:02;100630.36;;;6.83;76.23
56789;BME280;42657;51.650;17.780;2022-11-14T15:11:04;100636.53;;;6.69;76.39
56789;BME280;42657;51.650;17.780;2022-11-14T15:14:12;100633.17;;;6.55;76.64
56789;BME280;42657;51.650;17.780;2022-11-14T15:17:14;100630.70;;;6.43;76.95
56789;BME280;42657;51.650;17.780;2022-11-14T15:20:27;100624.84;;;6.32;77.10
56789;BME280;42657;51.650;17.780;2022-11-14T15:23:30;100623.45;;;6.21;77.40
56789;BME280;42657;51.650;17.780;2022-11-14T15:26:33;100624.08;;;6.08;77.58
56789;BME280;42657;51.650;17.780;2022-11-14T15:29:44;100620.87;;;5.97;77.83
56789;BME280;42657;51.650;17.780;2022-11-14T15:32:48;100626.85;;;5.88;78.02
56789;BME280;42657;51.650;17.780;2022-11-14T15:36:04;100628.38;;;5.81;78.31
56789;BME280;42657;51.650;17.780;2022-11-14T15:39:26;100626.34;;;5.73;78.48
56789;BME280;42657;51.650;17.780;2022-11-14T15:42:27;100625.41;;;5.64;78.67
56789;BME280;42657;51.650;17.780;2022-11-14T15:45:39;100620.89;;;5.57;78.89
56789;BME280;42657;51.650;17.780;2022-11-14T15:48:40;100612.21;;;5.51;79.20
56789;BME280;42657;51.650;17.780;2022-11-14T15:51:48;100613.56;;;5.44;79.25
56789;BME280;42657;51.650;17.780;2022-11-14T15:54:50;100615.33;;;5.38;79.40
56789;BME280;42657;51.650;17.780;2022-11-14T15:57:51;100614.01;;;5.31;79.64
56789;BME280;42657;51.650;17.780;2022-11-14T16:00:54;100609.80;;;5.25;79.86
56789;BME280;42657;51.650;17.780;2022-11-14T16:03:55;100606.99;;;5.20;79.94
56789;BME280;42657;51.650;17.780;2022-11-14T16:06:57;100599.42;;;5.16;80.18
56789;BME280;42657;51.650;17.780;2022-11-14T16:09:59;100594.14;;;5.12;80.34
56789;BME280;42657;51.650;17.780;2022-11-14T16:13:00;100590.37;;;5.07;80.36
56789;BME280;42657;51.650;17.780;2022-11-14T16:16:01;100586.08;;;5.02;80.62
56789;BME280;42657;51.650;17.780;2022-11-14T16:19:03;100588.45;;;4.95;80.60
56789;BME280;42657;51.650;17.780;2022-11-14T16:22:07;100589.43;;;4.87;80.64
56789;BME280;42657;51.650;17.780;2022-11-14T16:25:22;100596.60;;;4.81;80.62
56789;BME280;42657;51.650;17.780;2022-11-14T16:28:24;100599.34;;;4.74;80.66
56789;BME280;42657;51.650;17.780;2022-11-14T16:31:26;100593.30;;;4.65;80.63
56789;BME280;42657;51.650;17.780;2022-11-14T16:34:27;100588.59;;;4.57;80.80
56789;BME280;42657;51.650;17.780;2022-11-14T16:37:29;100588.36;;;4.49;80.87
56789;BME280;42657;51.650;17.780;2022-11-14T16:40:31;100591.63;;;4.43;81.16
56789;BME280;42657;51.650;17.780;2022-11-14T16:43:32;100593.06;;;4.40;81.27
56789;BME280;42657;51.650;17.780;2022-11-14T16:46:34;100589.86;;;4.38;81.44
56789;BME280;42657;51.650;17.780;2022-11-14T16:49:38;100590.08;;;4.35;81.62
56789;BME280;42657;51.650;17.780;2022-11-14T16:52:39;100581.92;;;4.31;81.65
56789;BME280;42657;51.650;17.780;2022-11-14T16:55:44;100583.10;;;4.27;81.98
56789;BME280;42657;51.650;17.780;2022-11-14T16:58:45;100582.87;;;4.24;81.96
56789;BME280;42657;51.650;17.780;2022-11-14T17:01:47;100582.47;;;4.20;81.96
56789;BME280;42657;51.650;17.780;2022-11-14T17:04:48;100577.79;;;4.17;82.07
56789;BME280;42657;51.650;17.780;2022-11-14T17:07:49;100582.39;;;4.14;82.20
56789;BME280;42657;51.650;17.780;2022-11-14T17:10:51;100582.40;;;4.10;82.28
56789;BME280;42657;51.650;17.780;2022-11-14T17:13:54;100581.86;;;4.06;82.36
56789;BME280;42657;51.650;17.780;2022-11-14T17:16:58;100581.70;;;4.02;82.31
56789;BME280;42657;51.650;17.780;2022-11-14T17:19:59;100573.67;;;3.99;82.52
56789;BME280;42657;51.650;17.780;2022-11-14T17:23:01;100567.21;;;4.00;82.72
56789;BME280;42657;51.650;17.780;2022-11-14T17:26:04;100561.56;;;3.99;82.71
56789;BME280;42657;51.650;17.780;2022-11-14T17:29:06;100551.96;;;4.01;83.02